createdAt,value
2019-04-06T00:02:25.531Z,42.60
2019-04-06T00:04:58.448Z,40.85
2019-04-06T00:07:29.904Z,38.57
2019-04-06T00:10:02.410Z,43.37
2019-04-06T00:12:34.301Z,42.00
2019-04-06T00:15:05.429Z,37.30
2019-04-06T00:17:37.127Z,38.13
2019-04-06T00:20:09.055Z,41.30
2019-04-06T00:22:40.605Z,41.80
2019-04-06T00:25:10.402Z,42.87
2019-04-06T00:27:41.800Z,44.83
2019-04-06T00:30:13.378Z,41.73
2019-04-06T00:32:46.518Z,41.27
2019-04-06T00:35:17.707Z,43.73
2019-04-06T00:37:46.833Z,36.37
2019-04-06T00:40:18.795Z,42.67
2019-04-06T00:42:50.548Z,41.40
2019-04-06T00:45:21.890Z,38.43
2019-04-06T00:47:54.494Z,29.03
2019-04-06T00:50:25.135Z,33.00
2019-04-06T00:52:57.818Z,41.17
2019-04-06T00:55:29.166Z,34.17
2019-04-06T00:58:00.120Z,35.27
2019-04-06T01:00:32.202Z,45.90
2019-04-06T01:03:03.409Z,44.03
2019-04-06T01:05:35.081Z,42.07
2019-04-06T01:08:06.098Z,35.83
2019-04-06T01:10:37.780Z,42.43
2019-04-06T01:13:08.880Z,39.77
2019-04-06T01:15:39.662Z,34.50
2019-04-06T01:18:10.884Z,42.27
2019-04-06T01:20:40.852Z,40.27
2019-04-06T01:23:11.844Z,42.37
2019-04-06T01:25:44.688Z,33.63
2019-04-06T01:28:15.833Z,38.10
2019-04-06T01:31:06.253Z,44.33
2019-04-06T01:33:37.103Z,39.83
2019-04-06T01:36:06.699Z,44.37
2019-04-06T01:38:57.206Z,43.83
2019-04-06T01:41:26.727Z,39.17
2019-04-06T01:43:57.983Z,43.10
2019-04-06T01:46:30.026Z,44.50
2019-04-06T01:48:59.495Z,37.83
2019-04-06T01:51:29.539Z,44.37
2019-04-06T01:53:59.956Z,42.53
2019-04-06T01:56:30.194Z,44.13
2019-04-06T01:59:03.592Z,42.37
2019-04-06T02:01:37.145Z,43.00
2019-04-06T02:04:09.661Z,42.97
2019-04-06T02:06:40.007Z,44.47
2019-04-06T02:09:11.651Z,28.17
2019-04-06T02:11:42.655Z,42.90
2019-04-06T02:14:13.288Z,44.17
2019-04-06T02:16:44.164Z,36.10
2019-04-06T02:19:14.390Z,43.63
2019-04-06T02:22:04.422Z,43.60
2019-04-06T02:24:36.277Z,42.80
2019-04-06T02:27:06.772Z,43.10
2019-04-06T02:29:38.485Z,31.43
2019-04-06T02:32:27.187Z,39.57
2019-04-06T02:35:16.778Z,41.10
2019-04-06T02:37:54.640Z,43.23
2019-04-06T02:40:33.177Z,41.17
2019-04-06T02:43:05.568Z,30.20
2019-04-06T02:45:37.223Z,37.73
2019-04-06T02:48:08.553Z,43.97
2019-04-06T02:50:39.203Z,34.53
2019-04-06T02:53:09.790Z,38.57
2019-04-06T02:55:41.602Z,40.50
2019-04-06T02:58:11.354Z,38.57
2019-04-06T03:00:43.166Z,42.47
2019-04-06T03:03:15.974Z,43.60
2019-04-06T03:05:46.218Z,35.30
2019-04-06T03:08:17.443Z,41.63
2019-04-06T03:10:49.546Z,42.47
2019-04-06T03:13:20.226Z,39.37
2019-04-06T03:15:51.488Z,43.80
2019-04-06T03:18:22.343Z,42.80
2019-04-06T03:20:52.832Z,42.77
2019-04-06T03:23:25.302Z,41.77
2019-04-06T03:25:56.689Z,41.83
2019-04-06T03:28:28.146Z,41.53
2019-04-06T03:30:59.475Z,41.33
2019-04-06T03:33:29.774Z,42.00
2019-04-06T03:36:02.497Z,36.03
2019-04-06T03:38:33.903Z,39.83
2019-04-06T03:41:06.386Z,43.03
2019-04-06T03:43:37.935Z,32.97
2019-04-06T03:46:08.924Z,35.47
2019-04-06T03:48:40.905Z,44.00
2019-04-06T03:51:12.303Z,35.13
2019-04-06T03:53:43.452Z,40.10
2019-04-06T03:56:15.406Z,39.80
2019-04-06T03:58:45.579Z,37.77
2019-04-06T04:01:16.414Z,41.97
2019-04-06T04:03:47.776Z,42.57
2019-04-06T04:06:20.545Z,30.23
2019-04-06T04:08:51.956Z,43.30
2019-04-06T04:11:34.286Z,42.63
2019-04-06T04:14:04.810Z,33.23
2019-04-06T04:16:36.676Z,42.43
2019-04-06T04:19:08.737Z,37.47
2019-04-06T04:21:38.674Z,34.93
2019-04-06T04:24:09.075Z,32.57
2019-04-06T04:26:39.947Z,36.27
2019-04-06T04:29:11.237Z,39.60
2019-04-06T04:31:42.252Z,40.23
2019-04-06T04:34:13.676Z,30.87
2019-04-06T04:36:42.407Z,25.37
2019-04-06T04:39:12.108Z,41.40
2019-04-06T04:41:43.945Z,33.50
2019-04-06T04:44:16.168Z,31.07
2019-04-06T04:46:46.521Z,37.53
2019-04-06T04:49:17.895Z,41.27
2019-04-06T04:51:48.051Z,42.23
2019-04-06T04:54:19.829Z,29.20
2019-04-06T04:56:51.607Z,39.90
2019-04-06T04:59:24.189Z,30.17
2019-04-06T05:01:55.091Z,39.23
2019-04-06T05:04:25.981Z,41.60
2019-04-06T05:06:58.599Z,40.40
2019-04-06T05:09:29.470Z,42.90
2019-04-06T05:12:01.849Z,36.60
2019-04-06T05:14:55.412Z,42.20
2019-04-06T05:17:26.773Z,43.33
2019-04-06T05:19:56.376Z,34.83
2019-04-06T05:22:27.673Z,32.73
2019-04-06T05:24:59.996Z,36.80
2019-04-06T05:27:31.287Z,41.50
2019-04-06T05:30:05.099Z,35.60
2019-04-06T05:32:36.819Z,36.67
2019-04-06T05:35:10.746Z,40.13
2019-04-06T05:37:42.859Z,35.20
2019-04-06T05:40:14.322Z,28.17
2019-04-06T05:42:45.860Z,38.50
2019-04-06T05:45:15.728Z,43.67
2019-04-06T05:47:49.090Z,43.77
2019-04-06T05:50:20.846Z,45.37
2019-04-06T05:52:52.482Z,42.37
2019-04-06T05:55:24.783Z,42.47
2019-04-06T05:58:03.400Z,39.43
2019-04-06T06:00:29.762Z,45.20
2019-04-06T06:03:01.244Z,43.57
2019-04-06T06:05:33.514Z,44.67
2019-04-06T06:08:04.286Z,45.80
2019-04-06T06:10:35.328Z,40.27
2019-04-06T06:13:07.420Z,39.43
2019-04-06T06:15:39.509Z,41.43
2019-04-06T06:18:11.074Z,38.10
2019-04-06T06:20:42.156Z,44.40
2019-04-06T06:23:15.293Z,44.07
2019-04-06T06:25:47.467Z,44.97
2019-04-06T06:28:18.619Z,44.53
2019-04-06T06:30:49.258Z,43.47
2019-04-06T06:33:20.998Z,40.87
2019-04-06T06:35:52.345Z,43.17
2019-04-06T06:38:21.481Z,39.23
2019-04-06T06:40:52.831Z,41.60
2019-04-06T06:43:24.549Z,42.93
2019-04-06T06:45:56.381Z,44.50
2019-04-06T06:48:25.471Z,42.23
2019-04-06T06:50:56.790Z,40.73
2019-04-06T06:53:28.863Z,42.43
2019-04-06T06:55:59.784Z,42.87
2019-04-06T06:58:31.469Z,43.47
2019-04-06T07:01:03.450Z,40.07
2019-04-06T07:03:35.087Z,39.97
2019-04-06T07:06:06.227Z,39.37
2019-04-06T07:08:39.593Z,40.30
2019-04-06T07:11:11.258Z,25.30
2019-04-06T07:13:41.532Z,37.93
2019-04-06T07:16:12.877Z,34.47
2019-04-06T07:18:42.939Z,38.57
2019-04-06T07:21:13.363Z,43.67
2019-04-06T07:23:44.718Z,40.10
2019-04-06T07:26:15.471Z,38.70
2019-04-06T07:28:46.837Z,36.97
2019-04-06T07:31:18.957Z,40.70
2019-04-06T07:33:50.473Z,39.50
2019-04-06T07:36:22.188Z,39.63
2019-04-06T07:38:52.692Z,33.80
2019-04-06T07:41:24.795Z,35.30
2019-04-06T07:43:55.971Z,39.20
2019-04-06T07:46:27.827Z,37.47
2019-04-06T07:49:07.865Z,38.40
2019-04-06T07:51:31.790Z,37.57
2019-04-06T07:54:02.194Z,36.87
2019-04-06T07:56:33.303Z,33.10
2019-04-06T07:59:05.819Z,31.53
2019-04-06T08:01:36.180Z,35.20
2019-04-06T08:04:07.773Z,33.73
2019-04-06T08:06:39.364Z,32.80
2019-04-06T08:09:10.316Z,36.23
2019-04-06T08:11:42.598Z,31.80
2019-04-06T08:14:13.166Z,36.07
2019-04-06T08:16:44.810Z,33.40
2019-04-06T08:19:16.287Z,31.70
2019-04-06T08:21:47.742Z,29.57
2019-04-06T08:24:19.379Z,32.17
2019-04-06T08:26:50.832Z,32.43
2019-04-06T08:29:22.023Z,33.13
2019-04-06T08:31:54.537Z,32.03
2019-04-06T08:34:25.676Z,34.00
2019-04-06T08:36:55.966Z,33.03
2019-04-06T08:39:27.258Z,32.10
2019-04-06T08:41:58.187Z,30.83
2019-04-06T08:44:30.087Z,32.13
2019-04-06T08:47:01.464Z,26.80
2019-04-06T08:49:32.623Z,21.27
2019-04-06T08:52:03.943Z,26.87
2019-04-06T08:54:34.142Z,30.17
2019-04-06T08:57:06.133Z,29.77
2019-04-06T08:59:37.160Z,30.23
2019-04-06T09:02:08.153Z,26.73
2019-04-06T09:04:39.919Z,25.13
2019-04-06T09:07:11.525Z,29.47
2019-04-06T09:09:43.221Z,28.83
2019-04-06T09:12:14.610Z,29.90
2019-04-06T09:14:45.790Z,28.40
2019-04-06T09:17:16.552Z,24.30
2019-04-06T09:19:47.131Z,24.23
2019-04-06T09:22:18.126Z,25.97
2019-04-06T09:24:49.451Z,26.50
2019-04-06T09:27:19.927Z,25.37
2019-04-06T09:29:50.480Z,26.70
2019-04-06T09:32:21.417Z,24.90
2019-04-06T09:34:52.952Z,23.60
2019-04-06T09:37:24.223Z,21.23
2019-04-06T09:39:56.106Z,20.77
2019-04-06T09:42:27.579Z,18.70
2019-04-06T09:45:07.696Z,14.20
2019-04-06T09:47:57.691Z,16.50
2019-04-06T09:50:33.251Z,17.33
2019-04-06T09:53:14.497Z,15.77
2019-04-06T09:55:54.479Z,14.87
2019-04-06T09:58:27.724Z,15.57
2019-04-06T10:01:12.588Z,15.17
2019-04-06T10:03:54.336Z,14.23
2019-04-06T10:06:36.545Z,14.17
2019-04-06T10:09:10.348Z,16.07
2019-04-06T10:11:43.396Z,15.17
2019-04-06T10:14:16.562Z,14.13
2019-04-06T10:17:04.847Z,14.23
2019-04-06T10:19:46.446Z,14.90
2019-04-06T10:22:37.346Z,14.73
2019-04-06T10:25:19.776Z,15.03
2019-04-06T10:27:55.841Z,13.53
2019-04-06T10:30:42.744Z,16.43
2019-04-06T10:33:23.741Z,15.90
2019-04-06T10:35:58.948Z,14.53
2019-04-06T10:38:31.762Z,15.63
2019-04-06T10:41:05.378Z,14.63
2019-04-06T10:43:43.870Z,15.73
2019-04-06T10:46:19.883Z,14.97
2019-04-06T10:48:52.599Z,13.80
2019-04-06T10:51:32.859Z,15.60
2019-04-06T10:54:14.074Z,15.10
2019-04-06T10:56:46.894Z,14.93
2019-04-06T10:59:24.147Z,11.73
2019-04-06T11:02:11.177Z,12.67
2019-04-06T11:04:57.872Z,12.47
2019-04-06T11:07:30.813Z,12.77
2019-04-06T11:10:18.886Z,13.70
2019-04-06T11:12:57.683Z,13.53
2019-04-06T11:15:30.465Z,13.73
2019-04-06T11:18:09.616Z,13.73
2019-04-06T11:20:56.854Z,13.67
2019-04-06T11:23:29.508Z,15.03
2019-04-06T11:26:11.842Z,13.93
2019-04-06T11:28:45.240Z,15.00
2019-04-06T11:31:17.772Z,14.63
2019-04-06T11:34:24.830Z,14.37
2019-04-06T11:37:00.280Z,10.53
2019-04-06T11:39:49.207Z,15.20
2019-04-06T11:42:33.982Z,15.80
2019-04-06T11:45:15.547Z,16.50
2019-04-06T11:47:48.220Z,17.20
2019-04-06T11:50:21.019Z,16.97
2019-04-06T11:53:00.952Z,17.70
2019-04-06T11:55:45.448Z,17.60
2019-04-06T11:58:20.679Z,17.50
2019-04-06T12:01:02.626Z,17.07
2019-04-06T12:03:34.399Z,16.90
2019-04-06T12:06:07.054Z,16.87
2019-04-06T12:08:46.528Z,19.27
2019-04-06T12:11:25.252Z,18.83
2019-04-06T12:14:07.363Z,17.53
2019-04-06T12:16:48.977Z,20.90
2019-04-06T12:19:38.228Z,20.23
2019-04-06T12:22:15.962Z,19.97
2019-04-06T12:24:53.950Z,19.37
2019-04-06T12:27:42.494Z,19.33
2019-04-06T12:30:18.663Z,17.93
2019-04-06T12:32:51.208Z,20.53
2019-04-06T12:35:23.576Z,20.70
2019-04-06T12:37:56.171Z,19.83
2019-04-06T12:40:41.493Z,20.30
2019-04-06T12:43:25.709Z,21.57
2019-04-06T12:46:14.880Z,20.90
2019-04-06T12:48:47.270Z,20.73
2019-04-06T12:51:26.591Z,21.93
2019-04-06T12:54:05.045Z,20.93
2019-04-06T12:56:41.943Z,19.67
2019-04-06T12:59:17.522Z,22.60
2019-04-06T13:01:51.259Z,21.83
2019-04-06T13:04:40.516Z,22.73
2019-04-06T13:07:13.999Z,22.20
2019-04-06T13:09:56.445Z,20.57
2019-04-06T13:12:28.572Z,17.87
2019-04-06T13:15:05.411Z,20.53
2019-04-06T13:18:06.679Z,21.33
2019-04-06T13:20:43.929Z,22.37
2019-04-06T13:23:25.647Z,21.50
2019-04-06T13:26:06.628Z,22.20
2019-04-06T13:28:39.800Z,22.43
2019-04-06T13:31:19.780Z,23.27
2019-04-06T13:34:04.866Z,20.07
2019-04-06T13:36:52.944Z,20.33
2019-04-06T13:39:34.196Z,19.80
2019-04-06T13:42:06.886Z,23.33
2019-04-06T13:44:42.717Z,23.80
2019-04-06T13:47:15.291Z,22.83
2019-04-06T13:49:56.821Z,23.57
2019-04-06T13:52:35.271Z,23.00
2019-04-06T13:55:11.282Z,23.73
2019-04-06T13:57:47.264Z,24.67
2019-04-06T14:00:25.976Z,22.77
2019-04-06T14:02:59.274Z,25.27
2019-04-06T14:05:40.598Z,26.13
2019-04-06T14:08:28.967Z,25.93
2019-04-06T14:11:07.680Z,25.00
2019-04-06T14:13:40.225Z,25.33
2019-04-06T14:16:47.665Z,25.87
2019-04-06T14:19:29.595Z,26.53
2019-04-06T14:22:10.083Z,28.73
2019-04-06T14:24:42.935Z,28.10
2019-04-06T14:27:26.107Z,28.33
2019-04-06T14:30:14.974Z,27.93
2019-04-06T14:32:50.064Z,26.33
2019-04-06T14:35:30.471Z,28.87
2019-04-06T14:38:11.118Z,29.73
2019-04-06T14:41:02.521Z,28.90
2019-04-06T14:43:35.911Z,29.83
2019-04-06T14:46:17.628Z,31.63
2019-04-06T14:49:13.903Z,27.20
2019-04-06T14:51:39.671Z,30.47
2019-04-06T14:54:17.132Z,28.63
2019-04-06T14:56:48.356Z,28.63
2019-04-06T14:59:22.608Z,31.30
2019-04-06T15:02:09.358Z,30.33
2019-04-06T15:04:47.010Z,29.20
2019-04-06T15:07:35.106Z,29.17
2019-04-06T15:10:08.902Z,28.30
2019-04-06T15:12:51.126Z,28.37
2019-04-06T15:15:22.682Z,30.50
2019-04-06T15:17:55.417Z,29.40
2019-04-06T15:20:45.334Z,29.30
2019-04-06T15:23:36.832Z,28.57
2019-04-06T15:26:15.453Z,28.93
2019-04-06T15:28:50.254Z,27.77
2019-04-06T15:31:48.518Z,29.47
2019-04-06T15:34:15.145Z,29.73
2019-04-06T15:36:49.841Z,30.47
2019-04-06T15:39:21.848Z,30.17
2019-04-06T15:41:59.819Z,29.00
2019-04-06T15:44:48.071Z,28.67
2019-04-06T15:47:26.375Z,26.97
2019-04-06T15:50:14.414Z,25.97
2019-04-06T15:52:59.345Z,24.43
2019-04-06T15:55:40.561Z,27.30
2019-04-06T15:58:14.699Z,26.60
2019-04-06T16:00:55.444Z,27.70
2019-04-06T16:03:38.256Z,25.33
2019-04-06T16:06:13.348Z,26.50
2019-04-06T16:08:49.482Z,25.70
2019-04-06T16:11:23.678Z,27.43
2019-04-06T16:13:58.208Z,26.20
2019-04-06T16:16:36.338Z,28.07
2019-04-06T16:19:27.079Z,25.80
2019-04-06T16:22:02.424Z,25.70
2019-04-06T16:24:35.299Z,25.93
2019-04-06T16:27:10.470Z,26.73
2019-04-06T16:29:42.796Z,25.60
2019-04-06T16:32:33.530Z,26.17
2019-04-06T16:35:03.268Z,26.63
2019-04-06T16:37:45.954Z,25.10
2019-04-06T16:40:27.160Z,26.73
2019-04-06T16:43:15.696Z,27.43
2019-04-06T16:45:48.726Z,26.10
2019-04-06T16:48:21.989Z,26.53
2019-04-06T16:51:10.986Z,26.67
2019-04-06T16:53:58.883Z,22.83
2019-04-06T16:56:46.444Z,27.20
2019-04-06T16:59:21.480Z,27.57
2019-04-06T17:01:57.385Z,26.03
2019-04-06T17:04:36.262Z,26.53
2019-04-06T17:07:24.219Z,26.17
2019-04-06T17:10:11.448Z,27.60
2019-04-06T17:12:44.506Z,23.33
2019-04-06T17:15:17.226Z,26.17
2019-04-06T17:17:53.499Z,27.67
2019-04-06T17:20:25.713Z,25.30
2019-04-06T17:23:10.622Z,26.23
2019-04-06T17:25:43.054Z,26.50
2019-04-06T17:28:16.018Z,26.63
2019-04-06T17:30:56.711Z,25.60
2019-04-06T17:33:30.601Z,22.40
2019-04-06T17:36:12.013Z,26.63
2019-04-06T17:38:47.971Z,25.53
2019-04-06T17:41:19.663Z,26.60
2019-04-06T17:43:55.295Z,25.27
2019-04-06T17:46:29.953Z,23.80
2019-04-06T17:49:17.333Z,25.37
2019-04-06T17:51:49.658Z,23.43
2019-04-06T17:54:38.368Z,22.97
2019-04-06T17:57:13.511Z,24.20
2019-04-06T18:00:02.840Z,27.27
2019-04-06T18:02:48.756Z,25.70
2019-04-06T18:05:16.171Z,27.23
2019-04-06T18:07:59.386Z,26.97
2019-04-06T18:10:32.392Z,20.53
2019-04-06T18:13:05.076Z,29.43
2019-04-06T18:15:36.247Z,30.10
2019-04-06T18:18:08.126Z,22.83
2019-04-06T18:20:40.346Z,30.30
2019-04-06T18:23:11.461Z,24.00
2019-04-06T18:25:42.940Z,30.50
2019-04-06T18:28:13.756Z,31.23
2019-04-06T18:30:45.465Z,32.00
2019-04-06T18:33:18.315Z,32.90
2019-04-06T18:35:48.559Z,29.03
2019-04-06T18:38:24.201Z,32.77
2019-04-06T18:40:55.742Z,32.20
2019-04-06T18:43:26.472Z,33.87
2019-04-06T18:45:58.814Z,31.40
2019-04-06T18:48:30.211Z,35.73
2019-04-06T18:51:04.440Z,31.63
2019-04-06T18:53:35.336Z,36.40
2019-04-06T18:56:07.246Z,35.47
2019-04-06T18:58:39.907Z,38.63
2019-04-06T19:01:14.561Z,39.70
2019-04-06T19:03:43.542Z,38.83
2019-04-06T19:06:14.711Z,38.53
2019-04-06T19:08:45.707Z,29.53
2019-04-06T19:11:16.539Z,38.50
2019-04-06T19:13:46.484Z,40.27
2019-04-06T19:16:18.011Z,41.57
2019-04-06T19:18:49.304Z,41.73
2019-04-06T19:21:20.593Z,41.37
2019-04-06T19:23:51.957Z,40.27
2019-04-06T19:26:23.361Z,39.13
2019-04-06T19:28:55.377Z,42.77
2019-04-06T19:31:26.141Z,42.97
2019-04-06T19:33:57.146Z,44.17
2019-04-06T19:36:28.490Z,43.37
2019-04-06T19:38:59.507Z,41.63
2019-04-06T19:41:30.843Z,44.17
2019-04-06T19:44:05.405Z,43.57
2019-04-06T19:46:36.695Z,43.03
2019-04-06T19:49:07.537Z,46.30
2019-04-06T19:51:39.729Z,46.50
2019-04-06T19:54:11.246Z,45.43
2019-04-06T19:56:43.071Z,46.50
2019-04-06T19:59:13.854Z,45.30
2019-04-06T20:01:45.870Z,43.77
2019-04-06T20:04:17.141Z,44.40
2019-04-06T20:07:07.988Z,45.23
2019-04-06T20:09:39.938Z,42.87
2019-04-06T20:12:11.499Z,43.13
2019-04-06T20:14:42.131Z,44.27
2019-04-06T20:17:13.843Z,43.93
2019-04-06T20:19:46.366Z,46.07
2019-04-06T20:22:18.133Z,34.23
2019-04-06T20:24:48.390Z,42.07
2019-04-06T20:27:19.049Z,46.23
2019-04-06T20:29:49.736Z,45.20
2019-04-06T20:32:21.357Z,45.50
2019-04-06T20:34:52.713Z,42.93
2019-04-06T20:37:23.065Z,43.07
2019-04-06T20:39:54.429Z,44.77
2019-04-06T20:42:26.024Z,45.03
2019-04-06T20:44:58.104Z,46.20
2019-04-06T20:47:32.418Z,46.20
2019-04-06T20:50:02.839Z,45.00
2019-04-06T20:52:34.322Z,43.93
2019-04-06T20:55:10.132Z,44.20
2019-04-06T20:57:42.639Z,47.90
2019-04-06T21:00:13.471Z,43.83
2019-04-06T21:02:46.114Z,41.20
2019-04-06T21:05:15.284Z,48.00
2019-04-06T21:07:46.371Z,45.20
2019-04-06T21:10:16.443Z,42.67
2019-04-06T21:12:47.613Z,46.57
2019-04-06T21:15:21.109Z,47.80
2019-04-06T21:17:53.423Z,48.00
2019-04-06T21:20:24.528Z,45.47
2019-04-06T21:22:56.406Z,49.97
2019-04-06T21:25:27.564Z,48.00
2019-04-06T21:27:59.960Z,46.90
2019-04-06T21:30:28.737Z,45.83
2019-04-06T21:32:57.803Z,47.80
2019-04-06T21:35:26.937Z,51.73
2019-04-06T21:37:56.336Z,49.20
2019-04-06T21:40:25.060Z,48.90
2019-04-06T21:42:53.962Z,48.03
2019-04-06T21:45:23.418Z,48.80
2019-04-06T21:47:53.017Z,49.03
2019-04-06T21:50:21.918Z,47.17
2019-04-06T21:52:50.837Z,47.07
2019-04-06T21:55:19.587Z,49.33
2019-04-06T21:57:48.184Z,44.10
2019-04-06T22:00:18.693Z,46.57
2019-04-06T22:02:48.587Z,45.23
2019-04-06T22:05:17.457Z,48.73
2019-04-06T22:07:49.806Z,48.10
2019-04-06T22:10:16.292Z,47.33
2019-04-06T22:12:44.784Z,48.43
2019-04-06T22:15:15.295Z,50.70
2019-04-06T22:17:43.820Z,49.90
2019-04-06T22:20:12.529Z,48.17
2019-04-06T22:22:41.666Z,47.07
2019-04-06T22:25:11.082Z,44.43
2019-04-06T22:27:39.928Z,45.77
2019-04-06T22:30:10.138Z,47.43
2019-04-06T22:32:39.270Z,42.77
2019-04-06T22:35:08.989Z,45.63
2019-04-06T22:37:37.969Z,45.57
2019-04-06T22:40:07.546Z,46.70
2019-04-06T22:42:36.601Z,45.70
2019-04-06T22:45:10.656Z,46.37
2019-04-06T22:47:39.884Z,46.33
2019-04-06T22:50:09.592Z,47.50
2019-04-06T22:52:57.485Z,46.13
2019-04-06T22:55:26.973Z,44.27
2019-04-06T22:57:55.773Z,46.97
2019-04-06T23:00:29.378Z,47.43
2019-04-06T23:03:02.595Z,45.73
2019-04-06T23:05:32.736Z,46.63
2019-04-06T23:08:01.205Z,47.30
2019-04-06T23:10:29.701Z,44.67
2019-04-06T23:12:58.290Z,45.97
2019-04-06T23:15:31.509Z,44.30
2019-04-06T23:18:00.382Z,46.73
2019-04-06T23:20:28.955Z,46.07
2019-04-06T23:22:57.486Z,44.63
2019-04-06T23:25:25.952Z,44.63
2019-04-06T23:27:54.426Z,45.57
2019-04-06T23:30:23.028Z,47.33
2019-04-06T23:32:51.496Z,47.47
2019-04-06T23:35:20.011Z,47.13
2019-04-06T23:37:49.190Z,45.63
2019-04-06T23:40:18.654Z,46.87
2019-04-06T23:42:47.122Z,46.73
2019-04-06T23:45:15.640Z,46.37
2019-04-06T23:47:44.504Z,46.83
2019-04-06T23:50:13.359Z,47.40
2019-04-06T23:52:42.342Z,46.40
2019-04-06T23:55:11.881Z,47.63
2019-04-06T23:57:40.598Z,48.13
